HCB1212 SBBR-SBRF
Flight info
| Callsign | HCB1212 |
|---|---|
| Flight time | N/A |
| Altitude | 35000 |
| Route | UGTAK UZ19 EPGEM DCT EGIKO DCT MUDAR |
| Aircraft | B738/M-SDE2E3FGHIRWXY/LB1 |
Departure
| Time | 2026-04-28 12:24 |
|---|---|
| Airport | Presidente Juscelino Kubitschek International Airport (SBBR) |
Arrival
| Time | N/A |
|---|---|
| Airport | Recife/Guararapes - Gilberto Freyre International Airport (SBRF) |
| Time | Latitude | Longitude | Altitude | Speed | Heading |
|---|---|---|---|---|---|
| 2026-04-28 12:08 | -15.87572 | -47.91854 | 3475 ft | 0 kts | 355° |
| 2026-04-28 12:10 | -15.87582 | -47.91853 | 3474 ft | 2 kts | 355° |
| 2026-04-28 12:10 | -15.87597 | -47.91852 | 3473 ft | 2 kts | 356° |
| 2026-04-28 12:11 | -15.87610 | -47.91851 | 3472 ft | 0 kts | 355° |
| 2026-04-28 12:11 | -15.87622 | -47.91849 | 3472 ft | 2 kts | 341° |
| 2026-04-28 12:11 | -15.87635 | -47.91842 | 3471 ft | 2 kts | 321° |
| 2026-04-28 12:11 | -15.87645 | -47.91830 | 3470 ft | 2 kts | 301° |
| 2026-04-28 12:12 | -15.87651 | -47.91816 | 3469 ft | 2 kts | 281° |
| 2026-04-28 12:12 | -15.87652 | -47.91805 | 3469 ft | 0 kts | 267° |
| 2026-04-28 12:12 | -15.87651 | -47.91798 | 3468 ft | 0 kts | 265° |
| 2026-04-28 12:16 | -15.87652 | -47.91806 | 3469 ft | 4 kts | 265° |
| 2026-04-28 12:17 | -15.87655 | -47.91842 | 3470 ft | 5 kts | 266° |
| 2026-04-28 12:17 | -15.87658 | -47.91889 | 3471 ft | 7 kts | 266° |
| 2026-04-28 12:17 | -15.87665 | -47.91948 | 3471 ft | 8 kts | 247° |
| 2026-04-28 12:17 | -15.87729 | -47.91998 | 3468 ft | 14 kts | 227° |
| 2026-04-28 12:18 | -15.87761 | -47.92107 | 3468 ft | 17 kts | 266° |
| 2026-04-28 12:18 | -15.87769 | -47.92234 | 3472 ft | 17 kts | 266° |
| 2026-04-28 12:18 | -15.87778 | -47.92363 | 3477 ft | 18 kts | 266° |
| 2026-04-28 12:18 | -15.87787 | -47.92496 | 3482 ft | 18 kts | 266° |
| 2026-04-28 12:19 | -15.87794 | -47.92629 | 3486 ft | 18 kts | 268° |
| 2026-04-28 12:19 | -15.87802 | -47.92768 | 3492 ft | 18 kts | 265° |
| 2026-04-28 12:19 | -15.87812 | -47.92899 | 3498 ft | 18 kts | 266° |
| 2026-04-28 12:19 | -15.87819 | -47.93031 | 3503 ft | 18 kts | 267° |
| 2026-04-28 12:20 | -15.87827 | -47.93164 | 3508 ft | 18 kts | 266° |
| 2026-04-28 12:20 | -15.87836 | -47.93299 | 3513 ft | 18 kts | 265° |
| 2026-04-28 12:20 | -15.87846 | -47.93437 | 3517 ft | 20 kts | 266° |
| 2026-04-28 12:20 | -15.87854 | -47.93586 | 3521 ft | 20 kts | 267° |
| 2026-04-28 12:21 | -15.87860 | -47.93726 | 3525 ft | 17 kts | 268° |
| 2026-04-28 12:21 | -15.87868 | -47.93853 | 3528 ft | 14 kts | 265° |
| 2026-04-28 12:21 | -15.87880 | -47.93943 | 3528 ft | 13 kts | 250° |
| 2026-04-28 12:21 | -15.87957 | -47.93995 | 3528 ft | 6 kts | 179° |
| 2026-04-28 12:22 | -15.87959 | -47.93995 | 3528 ft | 0 kts | 179° |
| 2026-04-28 12:22 | -15.87977 | -47.93994 | 3528 ft | 4 kts | 178° |
| 2026-04-28 12:22 | -15.88020 | -47.93986 | 3528 ft | 8 kts | 158° |
| 2026-04-28 12:22 | -15.88059 | -47.93932 | 3527 ft | 11 kts | 95° |
| 2026-04-28 12:23 | -15.88060 | -47.93914 | 3527 ft | 0 kts | 92° |
| 2026-04-28 12:23 | -15.88059 | -47.93822 | 3527 ft | 44 kts | 87° |
| 2026-04-28 12:23 | -15.88019 | -47.93244 | 3508 ft | 114 kts | 87° |
| 2026-04-28 12:23 | -15.87948 | -47.92188 | 3463 ft | 175 kts | 84° |
| 2026-04-28 12:24 | -15.87908 | -47.90834 | 3833 ft | 194 kts | 92° |
| 2026-04-28 12:24 | -15.88008 | -47.89422 | 4551 ft | 201 kts | 85° |